PWSweather.com
Personal Weather Stations
Station Observations

ChardChardGB

Lat: 50.877408, Lon: -2.94964741

Elevation: 341

Station Type: WS3083

http://www.merriott-astro.co.uk/weather/index.htm

High Low Average
Temperature 56.5°F13.6°C 44.2°F6.8°C 50.1°F10.1°C
Dew Point 53.0°F11.7°C 36.6°F2.6°C 44.9°F7.2°C
Winds 25.1 mph 40.4 kmh 1.0 mph 1.6 kmh 12.0 mph SSW19.3 kmh SSW
Wind Gusts 41.2 mph66.3 kmh 2.2 mph3.5 kmh 17.0 mph27.4 kmh
Humidity 92% 68% 82%
Pressure 29.03 in983.1 mb 28.82 in976.0 mb -
Precipitation 1.81 in46.0 mm - -
Hour Temp Dew Point Humidity Winds Wind Gusts Pressure Precip Precip Rate Daily Precip Total
12:00 AM 46.6°F8.1°C 39.1°F3.9°C 75% 5.6 mph S9.0 kmh S 7.6 mph12.2 kmh 29.01 in982.4 mb 0.00 in0.0 mm 0.00 in0.0 mm 0.00 in0.0 mm
12:10 AM 46.8°F8.2°C 39.3°F4.1°C 75% 6.9 mph S11.1 kmh S 10.7 mph17.2 kmh 29.01 in982.4 mb 0.00 in0.0 mm 0.00 in0.0 mm 0.00 in0.0 mm
12:20 AM 46.9°F8.3°C 39.1°F3.9°C 74% 8.1 mph S13.0 kmh S 10.7 mph17.2 kmh 29.01 in982.4 mb 0.00 in0.0 mm 0.00 in0.0 mm 0.00 in0.0 mm
12:30 AM 46.9°F8.3°C 38.4°F3.6°C 72% 7.1 mph SW11.4 kmh SW 10.7 mph17.2 kmh 29.02 in982.7 mb 0.00 in0.0 mm 0.00 in0.0 mm 0.00 in0.0 mm
12:40 AM 46.9°F8.3°C 38.4°F3.6°C 72% 7.3 mph S11.7 kmh S 9.8 mph15.8 kmh 29.01 in982.4 mb 0.00 in0.0 mm 0.00 in0.0 mm 0.00 in0.0 mm
12:50 AM 47.3°F8.5°C 38.4°F3.6°C 71% 8.6 mph S13.8 kmh S 11.4 mph18.3 kmh 29.01 in982.4 mb 0.00 in0.0 mm 0.00 in0.0 mm 0.00 in0.0 mm
01:00 AM 47.5°F8.6°C 38.6°F3.7°C 71% 8.3 mph S13.4 kmh S 13.6 mph21.9 kmh 29.01 in982.4 mb 0.00 in0.0 mm 0.00 in0.0 mm 0.00 in0.0 mm
01:10 AM 47.3°F8.5°C 38.4°F3.6°C 71% 9.5 mph S15.3 kmh S 15.2 mph24.5 kmh 29.01 in982.4 mb 0.00 in0.0 mm 0.00 in0.0 mm 0.00 in0.0 mm
01:20 AM 47.1°F8.4°C 38.2°F3.4°C 71% 7.3 mph SSW11.7 kmh SSW 13.0 mph20.9 kmh 29.01 in982.4 mb 0.00 in0.0 mm 0.00 in0.0 mm 0.00 in0.0 mm
01:30 AM 47.3°F8.5°C 38.0°F3.3°C 70% 7.5 mph S12.1 kmh S 10.7 mph17.2 kmh 29.01 in982.4 mb 0.00 in0.0 mm 0.00 in0.0 mm 0.00 in0.0 mm
01:40 AM 47.3°F8.5°C 37.3°F2.9°C 68% 7.5 mph S12.1 kmh S 9.8 mph15.8 kmh 29.01 in982.4 mb 0.00 in0.0 mm 0.00 in0.0 mm 0.00 in0.0 mm
01:50 AM 47.3°F8.5°C 37.3°F2.9°C 68% 8.4 mph SW13.5 kmh SW 12.1 mph19.5 kmh 29.02 in982.7 mb 0.00 in0.0 mm 0.00 in0.0 mm 0.00 in0.0 mm
02:00 AM 46.9°F8.3°C 37.3°F2.9°C 69% 7.2 mph S11.6 kmh S 11.4 mph18.3 kmh 29.01 in982.4 mb 0.00 in0.0 mm 0.00 in0.0 mm 0.00 in0.0 mm
02:10 AM 47.1°F8.4°C 37.8°F3.2°C 70% 9.2 mph S14.8 kmh S 12.1 mph19.5 kmh 29.01 in982.4 mb 0.00 in0.0 mm 0.00 in0.0 mm 0.00 in0.0 mm
02:20 AM 46.9°F8.3°C 37.7°F3.2°C 70% 7.8 mph SSW12.6 kmh SSW 13.6 mph21.9 kmh 29.01 in982.4 mb 0.00 in0.0 mm 0.00 in0.0 mm 0.00 in0.0 mm
02:30 AM 46.8°F8.2°C 37.5°F3.1°C 70% 6.6 mph SW10.6 kmh SW 10.7 mph17.2 kmh 29.02 in982.7 mb 0.00 in0.0 mm 0.00 in0.0 mm 0.00 in0.0 mm
02:40 AM 46.6°F8.1°C 37.3°F2.9°C 70% 7.1 mph S11.4 kmh S 10.7 mph17.2 kmh 29.02 in982.7 mb 0.00 in0.0 mm 0.00 in0.0 mm 0.00 in0.0 mm
02:50 AM 46.6°F8.1°C 37.3°F2.9°C 70% 9.8 mph S15.8 kmh S 13.0 mph20.9 kmh 29.01 in982.4 mb 0.00 in0.0 mm 0.00 in0.0 mm 0.00 in0.0 mm
03:00 AM 46.8°F8.2°C 37.5°F3.1°C 70% 9.0 mph S14.5 kmh S 13.0 mph20.9 kmh 29.02 in982.7 mb 0.00 in0.0 mm 0.00 in0.0 mm 0.00 in0.0 mm
03:10 AM 46.6°F8.1°C 37.3°F2.9°C 70% 8.1 mph SSW13.0 kmh SSW 9.8 mph15.8 kmh 29.01 in982.4 mb 0.00 in0.0 mm 0.00 in0.0 mm 0.00 in0.0 mm
03:20 AM 46.4°F8.0°C 36.8°F2.7°C 69% 5.5 mph S8.9 kmh S 9.2 mph14.8 kmh 29.02 in982.7 mb 0.00 in0.0 mm 0.00 in0.0 mm 0.00 in0.0 mm
03:30 AM 46.2°F7.9°C 36.6°F2.6°C 69% 7.2 mph S11.6 kmh S 11.4 mph18.3 kmh 29.02 in982.7 mb 0.00 in0.0 mm 0.00 in0.0 mm 0.00 in0.0 mm
03:40 AM 46.2°F7.9°C 36.6°F2.6°C 69% 6.5 mph SSW10.5 kmh SSW 9.2 mph14.8 kmh 29.02 in982.7 mb 0.00 in0.0 mm 0.00 in0.0 mm 0.00 in0.0 mm
03:50 AM 46.0°F7.8°C 36.8°F2.7°C 70% 7.3 mph SSW11.7 kmh SSW 11.4 mph18.3 kmh 29.01 in982.4 mb 0.00 in0.0 mm 0.00 in0.0 mm 0.00 in0.0 mm
04:00 AM 45.9°F7.7°C 36.6°F2.6°C 70% 6.1 mph SSW9.8 kmh SSW 8.3 mph13.4 kmh 29.02 in982.7 mb 0.00 in0.0 mm 0.00 in0.0 mm 0.00 in0.0 mm
04:10 AM 45.7°F7.6°C 36.8°F2.7°C 71% 7.8 mph S12.6 kmh S 9.8 mph15.8 kmh 29.02 in982.7 mb 0.00 in0.0 mm 0.00 in0.0 mm 0.00 in0.0 mm
04:20 AM 45.7°F7.6°C 36.8°F2.7°C 71% 7.3 mph S11.7 kmh S 8.3 mph13.4 kmh 29.02 in982.7 mb 0.00 in0.0 mm 0.00 in0.0 mm 0.00 in0.0 mm
04:30 AM 45.9°F7.7°C 37.4°F3.0°C 72% 7.2 mph SSW11.6 kmh SSW 9.8 mph15.8 kmh 29.03 in983.1 mb 0.00 in0.0 mm 0.00 in0.0 mm 0.00 in0.0 mm
04:40 AM 45.9°F7.7°C 37.7°F3.2°C 73% 8.0 mph S12.9 kmh S 12.1 mph19.5 kmh 29.03 in983.1 mb 0.00 in0.0 mm 0.00 in0.0 mm 0.00 in0.0 mm
04:50 AM 45.9°F7.7°C 37.7°F3.2°C 73% 5.8 mph S9.3 kmh S 8.3 mph13.4 kmh 29.03 in983.1 mb 0.00 in0.0 mm 0.00 in0.0 mm 0.00 in0.0 mm
05:00 AM 46.6°F8.1°C 37.7°F3.2°C 71% 7.3 mph SW11.7 kmh SW 10.7 mph17.2 kmh 29.03 in983.1 mb 0.00 in0.0 mm 0.00 in0.0 mm 0.00 in0.0 mm
05:10 AM 46.6°F8.1°C 37.3°F2.9°C 70% 5.5 mph SW8.9 kmh SW 7.6 mph12.2 kmh 29.03 in983.1 mb 0.00 in0.0 mm 0.00 in0.0 mm 0.00 in0.0 mm
05:20 AM 46.6°F8.1°C 37.7°F3.2°C 71% 8.1 mph S13.0 kmh S 9.8 mph15.8 kmh 29.03 in983.1 mb 0.00 in0.0 mm 0.00 in0.0 mm 0.00 in0.0 mm
05:30 AM 46.2°F7.9°C 38.1°F3.4°C 73% 5.7 mph S9.2 kmh S 9.8 mph15.8 kmh 29.02 in982.7 mb 0.00 in0.0 mm 0.00 in0.0 mm 0.00 in0.0 mm
05:40 AM 46.0°F7.8°C 37.9°F3.3°C 73% 3.4 mph SSW5.5 kmh SSW 5.4 mph8.7 kmh 29.03 in983.1 mb 0.00 in0.0 mm 0.00 in0.0 mm 0.00 in0.0 mm
05:50 AM 45.7°F7.6°C 37.9°F3.3°C 74% 2.0 mph SE3.2 kmh SE 3.8 mph6.1 kmh 29.02 in982.7 mb 0.00 in0.0 mm 0.00 in0.0 mm 0.00 in0.0 mm
06:00 AM 45.1°F7.3°C 40.0°F4.4°C 82% 2.8 mph SE4.5 kmh SE 3.8 mph6.1 kmh 29.02 in982.7 mb 0.00 in0.0 mm 0.00 in0.0 mm 0.00 in0.0 mm
06:10 AM 45.0°F7.2°C 40.1°F4.5°C 83% 2.6 mph S4.2 kmh S 4.5 mph7.2 kmh 29.03 in983.1 mb 0.00 in0.0 mm 0.00 in0.0 mm 0.00 in0.0 mm
06:20 AM 44.8°F7.1°C 40.2°F4.6°C 84% 3.5 mph S5.6 kmh S 5.4 mph8.7 kmh 29.02 in982.7 mb 0.00 in0.0 mm 0.00 in0.0 mm 0.00 in0.0 mm
06:30 AM 44.8°F7.1°C 39.9°F4.4°C 83% 2.7 mph SSE4.3 kmh SSE 4.5 mph7.2 kmh 29.02 in982.7 mb 0.00 in0.0 mm 0.00 in0.0 mm 0.00 in0.0 mm
06:40 AM 44.2°F6.8°C 39.4°F4.1°C 83% 1.0 mph SE1.6 kmh SE 2.2 mph3.5 kmh 29.03 in983.1 mb 0.00 in0.0 mm 0.00 in0.0 mm 0.00 in0.0 mm
06:50 AM 44.4°F6.9°C 39.9°F4.4°C 84% 3.1 mph S5.0 kmh S 4.5 mph7.2 kmh 29.02 in982.7 mb 0.00 in0.0 mm 0.00 in0.0 mm 0.00 in0.0 mm
07:00 AM 45.5°F7.5°C 39.7°F4.3°C 80% 5.4 mph SW8.7 kmh SW 10.7 mph17.2 kmh 29.02 in982.7 mb 0.00 in0.0 mm 0.00 in0.0 mm 0.00 in0.0 mm
07:10 AM 46.4°F8.0°C 40.6°F4.8°C 80% 6.5 mph S10.5 kmh S 9.2 mph14.8 kmh 29.02 in982.7 mb 0.01 in0.3 mm 0.06 in1.5 mm 0.01 in0.3 mm
07:20 AM 47.5°F8.6°C 40.6°F4.8°C 77% 9.2 mph S14.8 kmh S 15.9 mph25.6 kmh 29.01 in982.4 mb 0.01 in0.3 mm 0.00 in0.0 mm 0.01 in0.3 mm
07:30 AM 48.2°F9.0°C 40.7°F4.8°C 75% 10.9 mph SSW17.5 kmh SSW 13.6 mph21.9 kmh 29.01 in982.4 mb 0.01 in0.3 mm 0.00 in0.0 mm 0.01 in0.3 mm
07:40 AM 48.6°F9.2°C 40.7°F4.8°C 74% 10.8 mph S17.4 kmh S 17.4 mph28.0 kmh 29.01 in982.4 mb 0.01 in0.3 mm 0.00 in0.0 mm 0.01 in0.3 mm
07:50 AM 48.6°F9.2°C 40.7°F4.8°C 74% 9.9 mph S15.9 kmh S 15.2 mph24.5 kmh 29.00 in982.1 mb 0.01 in0.3 mm 0.00 in0.0 mm 0.01 in0.3 mm
08:00 AM 48.6°F9.2°C 41.0°F5.0°C 75% 10.7 mph SSW17.2 kmh SSW 14.5 mph23.3 kmh 29.00 in982.1 mb 0.01 in0.3 mm 0.00 in0.0 mm 0.01 in0.3 mm
08:10 AM 48.7°F9.3°C 41.9°F5.5°C 77% 13.3 mph SSW21.4 kmh SSW 17.4 mph28.0 kmh 29.00 in982.1 mb 0.00 in0.0 mm 0.00 in0.0 mm 0.01 in0.3 mm
08:20 AM 49.1°F9.5°C 42.5°F5.8°C 78% 13.1 mph S21.1 kmh S 15.9 mph25.6 kmh 28.99 in981.7 mb 0.00 in0.0 mm 0.00 in0.0 mm 0.01 in0.3 mm
08:30 AM 49.5°F9.7°C 42.6°F5.9°C 77% 14.4 mph SSW23.2 kmh SSW 19.7 mph31.7 kmh 28.98 in981.4 mb 0.00 in0.0 mm 0.00 in0.0 mm 0.01 in0.3 mm
08:40 AM 49.6°F9.8°C 42.4°F5.8°C 76% 15.1 mph S24.3 kmh S 20.6 mph33.2 kmh 28.98 in981.4 mb 0.00 in0.0 mm 0.00 in0.0 mm 0.01 in0.3 mm
08:50 AM 49.5°F9.7°C 42.6°F5.9°C 77% 14.8 mph S23.8 kmh S 21.3 mph34.3 kmh 28.98 in981.4 mb 0.00 in0.0 mm 0.00 in0.0 mm 0.01 in0.3 mm
09:00 AM 49.5°F9.7°C 42.9°F6.1°C 78% 16.4 mph S26.4 kmh S 20.6 mph33.2 kmh 28.97 in981.0 mb 0.00 in0.0 mm 0.00 in0.0 mm 0.01 in0.3 mm
09:10 AM 49.5°F9.7°C 42.9°F6.1°C 78% 14.2 mph SSW22.9 kmh SSW 19.0 mph30.6 kmh 28.97 in981.0 mb 0.00 in0.0 mm 0.00 in0.0 mm 0.01 in0.3 mm
09:20 AM 49.3°F9.6°C 43.1°F6.2°C 79% 17.5 mph SSW28.2 kmh SSW 22.8 mph36.7 kmh 28.96 in980.7 mb 0.00 in0.0 mm 0.00 in0.0 mm 0.01 in0.3 mm
09:30 AM 49.1°F9.5°C 42.9°F6.1°C 79% 14.0 mph SSW22.5 kmh SSW 19.7 mph31.7 kmh 28.95 in980.4 mb 0.00 in0.0 mm 0.00 in0.0 mm 0.01 in0.3 mm
09:40 AM 49.1°F9.5°C 43.5°F6.4°C 81% 15.2 mph SW24.5 kmh SW 21.3 mph34.3 kmh 28.95 in980.4 mb 0.00 in0.0 mm 0.00 in0.0 mm 0.01 in0.3 mm
09:50 AM 49.5°F9.7°C 44.2°F6.8°C 82% 12.5 mph S20.1 kmh S 16.8 mph27.0 kmh 28.93 in979.7 mb 0.00 in0.0 mm 0.00 in0.0 mm 0.01 in0.3 mm
10:00 AM 49.5°F9.7°C 44.2°F6.8°C 82% 13.2 mph S21.2 kmh S 15.2 mph24.5 kmh 28.91 in979.0 mb 0.00 in0.0 mm 0.00 in0.0 mm 0.01 in0.3 mm
10:10 AM 49.5°F9.7°C 44.8°F7.1°C 84% 15.7 mph S25.3 kmh S 19.7 mph31.7 kmh 28.91 in979.0 mb 0.01 in0.3 mm 0.06 in1.5 mm 0.02 in0.5 mm
10:20 AM 49.8°F9.9°C 45.5°F7.5°C 85% 18.6 mph S29.9 kmh S 24.4 mph39.3 kmh 28.91 in979.0 mb 0.01 in0.3 mm 0.00 in0.0 mm 0.02 in0.5 mm
10:30 AM 50.0°F10.0°C 46.0°F7.8°C 86% 19.3 mph S31.1 kmh S 28.9 mph46.5 kmh 28.91 in979.0 mb 0.05 in1.3 mm 0.24 in6.1 mm 0.06 in1.5 mm
10:40 AM 50.0°F10.0°C 46.3°F7.9°C 87% 16.9 mph SSW27.2 kmh SSW 19.7 mph31.7 kmh 28.90 in978.7 mb 0.08 in2.0 mm 0.18 in4.6 mm 0.09 in2.3 mm
10:50 AM 49.8°F9.9°C 46.1°F7.8°C 87% 20.0 mph S32.2 kmh S 28.2 mph45.4 kmh 28.90 in978.7 mb 0.14 in3.6 mm 0.36 in9.1 mm 0.15 in3.8 mm
11:00 AM 50.0°F10.0°C 46.6°F8.1°C 88% 14.9 mph S24.0 kmh S 22.1 mph35.6 kmh 28.88 in978.0 mb 0.21 in5.3 mm 0.08 in2.0 mm 0.22 in5.6 mm
11:10 AM 50.0°F10.0°C 46.9°F8.3°C 89% 14.1 mph S22.7 kmh S 19.0 mph30.6 kmh 28.88 in978.0 mb 0.22 in5.6 mm 0.06 in1.5 mm 0.25 in6.4 mm
11:20 AM 50.4°F10.2°C 47.5°F8.6°C 90% 17.0 mph S27.4 kmh S 19.7 mph31.7 kmh 28.88 in978.0 mb 0.24 in6.1 mm 0.12 in3.0 mm 0.26 in6.6 mm
11:30 AM 50.5°F10.3°C 47.7°F8.7°C 90% 19.3 mph S31.1 kmh S 25.1 mph40.4 kmh 28.87 in977.7 mb 0.24 in6.1 mm 0.00 in0.0 mm 0.30 in7.6 mm
11:40 AM 51.1°F10.6°C 48.5°F9.2°C 91% 19.0 mph SW30.6 kmh SW 25.1 mph40.4 kmh 28.85 in977.0 mb 0.25 in6.4 mm 0.06 in1.5 mm 0.34 in8.6 mm
11:50 AM 51.8°F11.0°C 49.3°F9.6°C 91% 19.5 mph SSW31.4 kmh SSW 25.1 mph40.4 kmh 28.84 in976.6 mb 0.24 in6.1 mm 0.00 in0.0 mm 0.39 in9.9 mm
12:00 PM 52.5°F11.4°C 50.3°F10.2°C 92% 22.4 mph SSW36.0 kmh SSW 28.2 mph45.4 kmh 28.84 in976.6 mb 0.21 in5.3 mm 0.00 in0.0 mm 0.44 in11.2 mm
12:10 PM 53.1°F11.7°C 50.8°F10.4°C 92% 23.2 mph S37.3 kmh S 34.9 mph56.2 kmh 28.84 in976.6 mb 0.25 in6.4 mm 0.24 in6.1 mm 0.50 in12.7 mm
12:20 PM 53.4°F11.9°C 51.2°F10.7°C 92% 24.0 mph SW38.6 kmh SW 40.3 mph64.9 kmh 28.83 in976.3 mb 0.28 in7.1 mm 0.18 in4.6 mm 0.54 in13.7 mm
12:30 PM 53.6°F12.0°C 51.3°F10.7°C 92% 22.5 mph SW36.2 kmh SW 31.1 mph50.1 kmh 28.84 in976.6 mb 0.28 in7.1 mm 0.00 in0.0 mm 0.58 in14.7 mm
12:40 PM 54.0°F12.2°C 51.7°F10.9°C 92% 22.3 mph SW35.9 kmh SW 29.8 mph48.0 kmh 28.84 in976.6 mb 0.28 in7.1 mm 0.00 in0.0 mm 0.63 in16.0 mm
12:50 PM 54.3°F12.4°C 52.1°F11.2°C 92% 20.1 mph SSW32.3 kmh SSW 27.3 mph43.9 kmh 28.83 in976.3 mb 0.25 in6.4 mm 0.00 in0.0 mm 0.64 in16.3 mm
01:00 PM 54.5°F12.5°C 51.3°F10.7°C 89% 19.1 mph S30.7 kmh S 26.6 mph42.8 kmh 28.83 in976.3 mb 0.22 in5.6 mm 0.00 in0.0 mm 0.66 in16.8 mm
01:10 PM 54.7°F12.6°C 51.2°F10.7°C 88% 17.6 mph S28.3 kmh S 25.1 mph40.4 kmh 28.83 in976.3 mb 0.19 in4.8 mm 0.00 in0.0 mm 0.69 in17.5 mm
01:20 PM 54.7°F12.6°C 51.2°F10.7°C 88% 20.9 mph SSW33.6 kmh SSW 25.9 mph41.7 kmh 28.84 in976.6 mb 0.17 in4.3 mm 0.00 in0.0 mm 0.71 in18.0 mm
01:30 PM 54.7°F12.6°C 50.9°F10.5°C 87% 16.2 mph SSW26.1 kmh SSW 24.4 mph39.3 kmh 28.83 in976.3 mb 0.15 in3.8 mm 0.00 in0.0 mm 0.73 in18.5 mm
01:40 PM 54.7°F12.6°C 50.9°F10.5°C 87% 18.0 mph SSW29.0 kmh SSW 23.5 mph37.8 kmh 28.83 in976.3 mb 0.12 in3.0 mm 0.00 in0.0 mm 0.74 in18.8 mm
01:50 PM 54.9°F12.7°C 51.1°F10.6°C 87% 21.9 mph SSW35.2 kmh SSW 35.8 mph57.6 kmh 28.82 in976.0 mb 0.13 in3.3 mm 0.06 in1.5 mm 0.77 in19.6 mm
02:00 PM 54.9°F12.7°C 51.1°F10.6°C 87% 18.2 mph SW29.3 kmh SW 25.9 mph41.7 kmh 28.83 in976.3 mb 0.12 in3.0 mm 0.00 in0.0 mm 0.78 in19.8 mm
02:10 PM 54.9°F12.7°C 50.8°F10.4°C 86% 17.3 mph SW27.8 kmh SW 21.3 mph34.3 kmh 28.84 in976.6 mb 0.11 in2.8 mm 0.00 in0.0 mm 0.79 in20.1 mm
02:20 PM 54.9°F12.7°C 50.8°F10.4°C 86% 21.3 mph S34.3 kmh S 28.9 mph46.5 kmh 28.83 in976.3 mb 0.12 in3.0 mm 0.06 in1.5 mm 0.83 in21.1 mm
02:30 PM 55.0°F12.8°C 50.9°F10.5°C 86% 17.0 mph S27.4 kmh S 21.3 mph34.3 kmh 28.83 in976.3 mb 0.11 in2.8 mm 0.00 in0.0 mm 0.84 in21.3 mm
02:40 PM 54.9°F12.7°C 50.8°F10.4°C 86% 16.8 mph SW27.0 kmh SW 24.4 mph39.3 kmh 28.83 in976.3 mb 0.12 in3.0 mm 0.06 in1.5 mm 0.86 in21.8 mm
02:50 PM 54.7°F12.6°C 50.6°F10.3°C 86% 17.6 mph SSW28.3 kmh SSW 26.6 mph42.8 kmh 28.83 in976.3 mb 0.14 in3.6 mm 0.12 in3.0 mm 0.91 in23.1 mm
03:00 PM 54.7°F12.6°C 50.6°F10.3°C 86% 18.4 mph SW29.6 kmh SW 26.6 mph42.8 kmh 28.84 in976.6 mb 0.14 in3.6 mm 0.00 in0.0 mm 0.92 in23.4 mm
03:10 PM 54.7°F12.6°C 50.6°F10.3°C 86% 15.9 mph S25.6 kmh S 19.0 mph30.6 kmh 28.85 in977.0 mb 0.15 in3.8 mm 0.06 in1.5 mm 0.94 in23.9 mm
03:20 PM 54.7°F12.6°C 50.6°F10.3°C 86% 16.4 mph SW26.4 kmh SW 23.5 mph37.8 kmh 28.84 in976.6 mb 0.14 in3.6 mm 0.00 in0.0 mm 0.97 in24.6 mm
03:30 PM 54.7°F12.6°C 50.6°F10.3°C 86% 15.5 mph S24.9 kmh S 31.1 mph50.1 kmh 28.84 in976.6 mb 0.14 in3.6 mm 0.00 in0.0 mm 0.98 in24.9 mm
03:40 PM 55.0°F12.8°C 50.6°F10.3°C 85% 18.6 mph SSW29.9 kmh SSW 26.6 mph42.8 kmh 28.85 in977.0 mb 0.12 in3.0 mm 0.00 in0.0 mm 0.98 in24.9 mm
03:50 PM 54.9°F12.7°C 50.4°F10.2°C 85% 15.2 mph SW24.5 kmh SW 20.6 mph33.2 kmh 28.85 in977.0 mb 0.07 in1.8 mm 0.00 in0.0 mm 0.98 in24.9 mm
04:00 PM 54.7°F12.6°C 50.3°F10.2°C 85% 17.6 mph SSW28.3 kmh SSW 24.4 mph39.3 kmh 28.84 in976.6 mb 0.08 in2.0 mm 0.01 in0.3 mm 1.00 in25.4 mm
04:10 PM 54.5°F12.5°C 50.1°F10.1°C 85% 20.4 mph S32.8 kmh S 25.1 mph40.4 kmh 28.84 in976.6 mb 0.08 in2.0 mm 0.00 in0.0 mm 1.03 in26.2 mm
04:20 PM 54.3°F12.4°C 51.5°F10.8°C 90% 18.4 mph SW29.6 kmh SW 23.5 mph37.8 kmh 28.85 in977.0 mb 0.08 in2.0 mm 0.00 in0.0 mm 1.05 in26.7 mm
04:30 PM 54.3°F12.4°C 51.5°F10.8°C 90% 17.9 mph SSW28.8 kmh SSW 29.8 mph48.0 kmh 28.85 in977.0 mb 0.11 in2.8 mm 0.18 in4.6 mm 1.09 in27.7 mm
05:38 PM 53.2°F11.8°C 50.4°F10.2°C 90% 25.1 mph W40.4 kmh W 28.9 mph46.5 kmh 28.86 in977.3 mb 0.20 in5.1 mm 1.50 in38.1 mm 1.29 in32.8 mm
05:50 PM 54.3°F12.4°C 51.8°F11.0°C 91% 24.8 mph S39.9 kmh S 41.2 mph66.3 kmh 28.87 in977.7 mb 0.27 in6.9 mm 0.35 in8.9 mm 1.36 in34.5 mm
06:00 PM 54.0°F12.2°C 51.1°F10.6°C 90% 16.7 mph SW26.9 kmh SW 28.9 mph46.5 kmh 28.88 in978.0 mb 0.32 in8.1 mm 0.06 in1.5 mm 1.41 in35.8 mm
06:10 PM 56.5°F13.6°C 53.0°F11.7°C 88% 11.5 mph WSW18.5 kmh WSW 16.8 mph27.0 kmh 28.89 in978.3 mb 0.35 in8.9 mm 0.18 in4.6 mm 1.44 in36.6 mm
06:20 PM 53.2°F11.8°C 50.4°F10.2°C 90% 12.8 mph SW20.6 kmh SW 19.0 mph30.6 kmh 28.90 in978.7 mb 0.40 in10.2 mm 0.30 in7.6 mm 1.49 in37.8 mm
06:30 PM 52.5°F11.4°C 49.7°F9.8°C 90% 10.0 mph SSW16.1 kmh SSW 13.0 mph20.9 kmh 28.90 in978.7 mb 0.30 in7.6 mm 0.00 in0.0 mm 1.58 in40.1 mm
06:40 PM 52.2°F11.2°C 49.0°F9.4°C 89% 8.1 mph SSW13.0 kmh SSW 12.1 mph19.5 kmh 28.91 in979.0 mb 0.28 in7.1 mm 0.00 in0.0 mm 1.58 in40.1 mm
06:50 PM 52.2°F11.2°C 48.7°F9.3°C 88% 7.7 mph SW12.4 kmh SW 11.4 mph18.3 kmh 28.90 in978.7 mb 0.24 in6.1 mm 0.00 in0.0 mm 1.59 in40.4 mm
07:00 PM 52.2°F11.2°C 48.7°F9.3°C 88% 8.3 mph SSW13.4 kmh SSW 12.1 mph19.5 kmh 28.92 in979.3 mb 0.19 in4.8 mm 0.00 in0.0 mm 1.59 in40.4 mm
07:10 PM 52.3°F11.3°C 48.6°F9.2°C 87% 9.4 mph S15.1 kmh S 13.0 mph20.9 kmh 28.92 in979.3 mb 0.15 in3.8 mm 0.00 in0.0 mm 1.59 in40.4 mm
07:20 PM 52.2°F11.2°C 48.4°F9.1°C 87% 9.1 mph SSE14.6 kmh SSE 14.5 mph23.3 kmh 28.93 in979.7 mb 0.11 in2.8 mm 0.00 in0.0 mm 1.59 in40.4 mm
07:30 PM 52.0°F11.1°C 48.5°F9.2°C 88% 12.3 mph SW19.8 kmh SW 17.4 mph28.0 kmh 28.92 in979.3 mb 0.01 in0.3 mm 0.00 in0.0 mm 1.59 in40.4 mm
07:40 PM 51.8°F11.0°C 48.7°F9.3°C 89% 11.7 mph SSW18.8 kmh SSW 17.4 mph28.0 kmh 28.91 in979.0 mb 0.00 in0.0 mm 0.00 in0.0 mm 1.59 in40.4 mm
07:50 PM 51.8°F11.0°C 48.7°F9.3°C 89% 11.7 mph S18.8 kmh S 15.9 mph25.6 kmh 28.93 in979.7 mb 0.00 in0.0 mm 0.00 in0.0 mm 1.59 in40.4 mm
08:00 PM 51.6°F10.9°C 48.5°F9.2°C 89% 12.3 mph S19.8 kmh S 15.9 mph25.6 kmh 28.95 in980.4 mb 0.00 in0.0 mm 0.00 in0.0 mm 1.59 in40.4 mm
08:10 PM 51.4°F10.8°C 48.6°F9.2°C 90% 10.0 mph S16.1 kmh S 12.1 mph19.5 kmh 28.94 in980.0 mb 0.00 in0.0 mm 0.00 in0.0 mm 1.59 in40.4 mm
08:20 PM 51.6°F10.9°C 48.8°F9.3°C 90% 12.6 mph S20.3 kmh S 19.0 mph30.6 kmh 28.95 in980.4 mb 0.00 in0.0 mm 0.00 in0.0 mm 1.59 in40.4 mm
08:30 PM 51.6°F10.9°C 48.5°F9.2°C 89% 10.4 mph SSW16.7 kmh SSW 14.5 mph23.3 kmh 28.95 in980.4 mb 0.00 in0.0 mm 0.00 in0.0 mm 1.59 in40.4 mm
08:40 PM 51.4°F10.8°C 48.3°F9.1°C 89% 12.6 mph SSW20.3 kmh SSW 15.9 mph25.6 kmh 28.94 in980.0 mb 0.01 in0.3 mm 0.06 in1.5 mm 1.61 in40.9 mm
08:50 PM 51.4°F10.8°C 48.3°F9.1°C 89% 11.7 mph SW18.8 kmh SW 16.8 mph27.0 kmh 28.95 in980.4 mb 0.01 in0.3 mm 0.00 in0.0 mm 1.61 in40.9 mm
09:00 PM 51.3°F10.7°C 48.1°F8.9°C 89% 11.2 mph S18.0 kmh S 15.2 mph24.5 kmh 28.95 in980.4 mb 0.02 in0.5 mm 0.01 in0.3 mm 1.62 in41.1 mm
09:10 PM 51.1°F10.6°C 48.3°F9.1°C 90% 14.1 mph SSW22.7 kmh SSW 19.0 mph30.6 kmh 28.95 in980.4 mb 0.02 in0.5 mm 0.00 in0.0 mm 1.62 in41.1 mm
09:20 PM 51.1°F10.6°C 48.3°F9.1°C 90% 13.7 mph SSW22.0 kmh SSW 22.1 mph35.6 kmh 28.96 in980.7 mb 0.04 in1.0 mm 0.12 in3.0 mm 1.63 in41.4 mm
09:30 PM 50.9°F10.5°C 48.1°F8.9°C 90% 11.0 mph SW17.7 kmh SW 17.4 mph28.0 kmh 28.96 in980.7 mb 0.04 in1.0 mm 0.00 in0.0 mm 1.63 in41.4 mm
09:40 PM 51.1°F10.6°C 48.3°F9.1°C 90% 8.3 mph SSW13.4 kmh SSW 15.9 mph25.6 kmh 28.96 in980.7 mb 0.04 in1.0 mm 0.00 in0.0 mm 1.64 in41.7 mm
09:50 PM 51.1°F10.6°C 48.5°F9.2°C 91% 5.8 mph S9.3 kmh S 9.8 mph15.8 kmh 28.95 in980.4 mb 0.04 in1.0 mm 0.00 in0.0 mm 1.65 in41.9 mm
10:00 PM 51.3°F10.7°C 48.7°F9.3°C 91% 7.5 mph SSW12.1 kmh SSW 9.8 mph15.8 kmh 28.96 in980.7 mb 0.04 in1.0 mm 0.00 in0.0 mm 1.65 in41.9 mm
10:10 PM 51.3°F10.7°C 48.7°F9.3°C 91% 6.5 mph SW10.5 kmh SW 9.8 mph15.8 kmh 28.95 in980.4 mb 0.06 in1.5 mm 0.12 in3.0 mm 1.68 in42.7 mm
10:20 PM 51.3°F10.7°C 48.7°F9.3°C 91% 5.6 mph S9.0 kmh S 7.6 mph12.2 kmh 28.96 in980.7 mb 0.06 in1.5 mm 0.00 in0.0 mm 1.69 in42.9 mm
10:30 PM 51.3°F10.7°C 48.7°F9.3°C 91% 6.0 mph S9.7 kmh S 9.2 mph14.8 kmh 28.96 in980.7 mb 0.07 in1.8 mm 0.06 in1.5 mm 1.71 in43.4 mm
10:40 PM 51.4°F10.8°C 48.9°F9.4°C 91% 7.2 mph WSW11.6 kmh WSW 9.8 mph15.8 kmh 28.96 in980.7 mb 0.08 in2.0 mm 0.06 in1.5 mm 1.74 in44.2 mm
10:50 PM 51.4°F10.8°C 48.9°F9.4°C 91% 5.2 mph S8.4 kmh S 9.2 mph14.8 kmh 28.97 in981.0 mb 0.09 in2.3 mm 0.06 in1.5 mm 1.75 in44.5 mm
11:00 PM 51.4°F10.8°C 48.9°F9.4°C 91% 2.5 mph SSW4.0 kmh SSW 4.5 mph7.2 kmh 28.95 in980.4 mb 0.11 in2.8 mm 0.02 in0.5 mm 1.76 in44.7 mm
11:10 PM 51.3°F10.7°C 48.7°F9.3°C 91% 2.8 mph S4.5 kmh S 4.5 mph7.2 kmh 28.95 in980.4 mb 0.08 in2.0 mm 0.00 in0.0 mm 1.76 in44.7 mm
11:20 PM 51.1°F10.6°C 48.5°F9.2°C 91% 3.2 mph SW5.1 kmh SW 3.8 mph6.1 kmh 28.97 in981.0 mb 0.08 in2.0 mm 0.00 in0.0 mm 1.77 in45.0 mm
11:30 PM 50.4°F10.2°C 47.8°F8.8°C 91% 4.1 mph SW6.6 kmh SW 8.3 mph13.4 kmh 28.97 in981.0 mb 0.07 in1.8 mm 0.00 in0.0 mm 1.78 in45.2 mm
11:40 PM 50.0°F10.0°C 47.5°F8.6°C 91% 3.4 mph WSW5.5 kmh WSW 5.4 mph8.7 kmh 28.98 in981.4 mb 0.05 in1.3 mm 0.00 in0.0 mm 1.78 in45.2 mm
11:50 PM 49.6°F9.8°C 46.8°F8.2°C 90% 4.3 mph SW6.9 kmh SW 6.0 mph9.7 kmh 28.99 in981.7 mb 0.06 in1.5 mm 0.06 in1.5 mm 1.81 in46.0 mm